Time;durP1;ratioP1;P1;durP2;ratioP2;P2;SDS_P1;SDS_P2;PMS_P1;PMS_P2;Temp;Humidity;BMP_temperature;BMP_pressure;BME280_temperature;BME280_humidity;BME280_pressure;Samples;Min_cycle;Max_cycle;Signal;HPM_P1;HPM_P2
2023/07/18 01:40:34;;;;;;;63.78;25.85;;;;;;;;;;10383803;22;20027;-88
2023/07/18 01:44:37;;;;;;;75.18;28.23;;;;;;;;;;10388093;22;20058;-89
2023/07/18 01:48:39;;;;;;;72.72;28.52;;;;;;;;;;10388111;22;20095;-88
2023/07/18 01:52:46;;;;;;;68.25;27.13;;;;;;;;;;10388316;22;20168;-90
2023/07/18 01:56:53;;;;;;;61.97;26.40;;;;;;;;;;10361516;22;20336;-89
2023/07/18 02:00:57;;;;;;;72.43;26.35;;;;;;;;;;10360824;22;20065;-84
2023/07/18 02:05:04;;;;;;;66.00;27.52;;;;;;;;;;10361164;22;20062;-89
2023/07/18 02:09:09;;;;;;;87.40;30.45;;;;;;;;;;10405009;22;20019;-88
2023/07/18 02:13:17;;;;;;;110.82;37.53;;;;;;;;;;10361049;22;20024;-88
2023/07/18 02:17:23;;;;;;;132.35;43.55;;;;;;;;;;10360318;22;20020;-89
2023/07/18 02:21:27;;;;;;;138.13;46.58;;;;;;;;;;10360085;22;20042;-88
2023/07/18 02:25:32;;;;;;;151.52;50.67;;;;;;;;;;10360747;22;20020;-89
2023/07/18 02:29:39;;;;;;;145.48;47.38;;;;;;;;;;10360651;22;20027;-89
2023/07/18 02:33:44;;;;;;;89.82;31.20;;;;;;;;;;10360766;22;20159;-89
2023/07/18 02:37:50;;;;;;;75.15;30.25;;;;;;;;;;10359651;22;20030;-89
2023/07/18 02:41:56;;;;;;;60.13;27.10;;;;;;;;;;10360690;22;20024;-89
2023/07/18 02:46:04;;;;;;;41.35;20.38;;;;;;;;;;10360485;22;20049;-88
2023/07/18 02:50:11;;;;;;;40.45;19.55;;;;;;;;;;10403819;22;20467;-89
2023/07/18 02:54:15;;;;;;;27.73;14.38;;;;;;;;;;10360222;22;20077;-89
2023/07/18 02:58:20;;;;;;;30.95;14.95;;;;;;;;;;10386793;22;20478;-88
2023/07/18 03:02:28;;;;;;;21.23;10.63;;;;;;;;;;10360618;22;20019;-89
2023/07/18 03:06:34;;;;;;;19.33;10.95;;;;;;;;;;10360355;22;20102;-90
2023/07/18 03:10:38;;;;;;;18.25;9.63;;;;;;;;;;10360198;22;20055;-89
2023/07/18 03:14:44;;;;;;;16.80;9.10;;;;;;;;;;10360016;22;20031;-90
2023/07/18 03:18:50;;;;;;;14.27;7.75;;;;;;;;;;10360133;22;20030;-87
2023/07/18 03:22:56;;;;;;;13.60;7.50;;;;;;;;;;10360118;22;20439;-90
2023/07/18 03:27:03;;;;;;;12.07;6.85;;;;;;;;;;10359139;22;20024;-89
2023/07/18 03:31:08;;;;;;;12.07;6.75;;;;;;;;;;10359933;22;20404;-89
2023/07/18 03:35:16;;;;;;;11.10;5.95;;;;;;;;;;10370583;22;20023;-88
2023/07/18 03:39:22;;;;;;;12.70;5.78;;;;;;;;;;10363020;22;20027;-90
2023/07/18 03:43:26;;;;;;;10.82;6.05;;;;;;;;;;10363148;22;20034;-89
2023/07/18 03:47:34;;;;;;;9.43;5.20;;;;;;;;;;10363759;22;20066;-90
2023/07/18 03:51:41;;;;;;;12.10;5.68;;;;;;;;;;10363389;22;20117;-90
2023/07/18 03:55:45;;;;;;;9.50;5.78;;;;;;;;;;10363467;22;20050;-90
2023/07/18 03:59:48;;;;;;;9.55;4.93;;;;;;;;;;10363178;22;20026;-91
2023/07/18 04:03:54;;;;;;;11.38;6.00;;;;;;;;;;10363117;22;20472;-89
2023/07/18 04:08:01;;;;;;;10.10;6.00;;;;;;;;;;10363883;22;20030;-90
2023/07/18 04:12:08;;;;;;;11.93;5.10;;;;;;;;;;10364334;22;20023;-88
2023/07/18 05:19:03;;;;;;;15.38;5.57;;;;;;;;;;10411319;22;20035;-90
2023/07/18 05:23:06;;;;;;;8.02;3.97;;;;;;;;;;10438429;22;20491;-90
2023/07/18 05:27:09;;;;;;;6.32;3.67;;;;;;;;;;10420281;22;20022;-87
2023/07/18 05:31:12;;;;;;;7.28;3.80;;;;;;;;;;10414462;22;20027;-86
2023/07/18 05:35:16;;;;;;;5.72;3.15;;;;;;;;;;10413930;22;20090;-91
2023/07/18 05:39:19;;;;;;;8.55;3.50;;;;;;;;;;10413743;22;20030;-92
2023/07/18 05:43:22;;;;;;;6.75;3.20;;;;;;;;;;10401185;22;20464;-92
2023/07/18 05:47:27;;;;;;;6.32;2.92;;;;;;;;;;10361475;22;20070;-88
2023/07/18 05:51:35;;;;;;;11.05;3.75;;;;;;;;;;10360554;22;20088;-88
2023/07/18 05:55:40;;;;;;;7.38;3.17;;;;;;;;;;10361039;22;20020;-87
2023/07/18 05:59:45;;;;;;;6.88;3.00;;;;;;;;;;10360528;22;20038;-88
2023/07/18 06:03:49;;;;;;;6.30;3.00;;;;;;;;;;10361531;22;20024;-87
2023/07/18 06:07:56;;;;;;;6.90;2.97;;;;;;;;;;10385271;22;20020;-88
2023/07/18 06:25:07;;;;;;;6.78;3.17;;;;;;;;;;10391013;22;20031;-86
2023/07/18 06:29:10;;;;;;;8.52;3.60;;;;;;;;;;10403825;22;20085;-92
2023/07/18 06:33:15;;;;;;;3.67;2.50;;;;;;;;;;10349453;22;20027;-89
2023/07/18 06:37:19;;;;;;;8.40;2.65;;;;;;;;;;10360491;22;20027;-88
2023/07/18 06:41:26;;;;;;;7.15;2.80;;;;;;;;;;10376676;22;20022;-88
2023/07/18 06:45:32;;;;;;;6.50;2.97;;;;;;;;;;10357469;22;20034;-90
2023/07/18 06:49:35;;;;;;;7.93;3.30;;;;;;;;;;10357797;22;20024;-91
2023/07/18 06:53:41;;;;;;;7.15;3.17;;;;;;;;;;10358601;22;20023;-88
2023/07/18 06:57:52;;;;;;;7.45;3.63;;;;;;;;;;10358746;22;20028;-88
2023/07/18 07:01:57;;;;;;;8.25;3.17;;;;;;;;;;10358313;22;20024;-87
2023/07/18 07:06:03;;;;;;;5.93;3.38;;;;;;;;;;10358095;22;20028;-88
2023/07/18 07:10:09;;;;;;;6.03;3.20;;;;;;;;;;10362333;22;20055;-87
2023/07/18 07:14:16;;;;;;;6.05;3.00;;;;;;;;;;10389451;22;20077;-89
2023/07/18 07:18:19;;;;;;;7.88;3.17;;;;;;;;;;10363536;22;20027;-88
2023/07/18 07:22:23;;;;;;;8.57;3.58;;;;;;;;;;10361829;22;20020;-93
2023/07/18 07:26:29;;;;;;;7.30;3.30;;;;;;;;;;10362645;22;20028;-87
2023/07/18 07:30:36;;;;;;;9.40;3.55;;;;;;;;;;10363341;22;20623;-90
2023/07/18 07:34:41;;;;;;;8.52;3.38;;;;;;;;;;10362354;22;20027;-86
2023/07/18 07:38:45;;;;;;;8.40;3.10;;;;;;;;;;10363531;22;20099;-86
2023/07/18 07:42:48;;;;;;;3.83;2.72;;;;;;;;;;10361808;22;20020;-86
2023/07/18 07:46:53;;;;;;;4.97;2.67;;;;;;;;;;10389311;22;20023;-85
2023/07/18 07:50:56;;;;;;;6.15;3.17;;;;;;;;;;10389232;22;20046;-88
2023/07/18 07:55:00;;;;;;;9.63;3.42;;;;;;;;;;10357316;22;20030;-89
2023/07/18 07:59:03;;;;;;;6.32;2.90;;;;;;;;;;10354303;22;20024;-87
2023/07/18 08:03:13;;;;;;;4.57;2.53;;;;;;;;;;10354384;22;20757;-92
2023/07/18 08:07:22;;;;;;;5.53;2.60;;;;;;;;;;10355869;22;20020;-88
2023/07/18 08:11:31;;;;;;;5.18;2.70;;;;;;;;;;10356854;22;20023;-86
2023/07/18 08:15:38;;;;;;;5.95;2.40;;;;;;;;;;10356137;22;20030;-87
2023/07/18 08:19:46;;;;;;;6.80;2.40;;;;;;;;;;10355542;22;20869;-86
2023/07/18 08:23:50;;;;;;;5.78;2.20;;;;;;;;;;10355917;22;20024;-87
2023/07/18 08:27:56;;;;;;;5.00;2.60;;;;;;;;;;10356036;22;20081;-87
2023/07/18 08:32:01;;;;;;;4.85;2.45;;;;;;;;;;10355585;22;20030;-87
2023/07/18 08:36:09;;;;;;;5.25;2.30;;;;;;;;;;10383141;22;20023;-88
2023/07/18 08:40:16;;;;;;;4.72;2.20;;;;;;;;;;10356448;22;20054;-86
2023/07/18 08:44:22;;;;;;;3.53;2.10;;;;;;;;;;10356392;22;20031;-87
2023/07/18 08:48:26;;;;;;;4.45;2.40;;;;;;;;;;10355240;22;20032;-88
2023/07/18 08:52:33;;;;;;;5.85;2.38;;;;;;;;;;10382754;22;20379;-86
2023/07/18 08:56:37;;;;;;;16.02;4.40;;;;;;;;;;10355334;22;20030;-89
2023/07/18 09:00:39;;;;;;;6.28;2.55;;;;;;;;;;10355211;22;20063;-92
2023/07/18 09:04:50;;;;;;;8.65;2.63;;;;;;;;;;10382112;22;20118;-90
2023/07/18 09:08:59;;;;;;;4.88;2.35;;;;;;;;;;10354660;22;20032;-92
2023/07/18 09:13:04;;;;;;;4.50;2.47;;;;;;;;;;10405474;22;20016;-84
2023/07/18 09:27:30;;;;;;;7.00;3.08;;;;;;;;;;10275494;22;20027;-91
2023/07/18 09:31:39;;;;;;;11.43;2.53;;;;;;;;;;10388622;22;20070;-87
2023/07/18 09:35:48;;;;;;;4.55;2.55;;;;;;;;;;10379883;22;20031;-87
2023/07/18 09:39:54;;;;;;;7.68;2.20;;;;;;;;;;10354129;22;20070;-90
2023/07/18 09:44:01;;;;;;;5.38;2.40;;;;;;;;;;10354614;22;20032;-91
2023/07/18 09:48:07;;;;;;;4.88;2.70;;;;;;;;;;10351220;22;20114;-86
2023/07/18 09:52:11;;;;;;;8.05;2.50;;;;;;;;;;10354518;22;20023;-87
2023/07/18 09:56:19;;;;;;;3.28;2.20;;;;;;;;;;10379722;22;20046;-85
2023/07/18 10:00:24;;;;;;;8.88;2.50;;;;;;;;;;10398192;22;20020;-88
2023/07/18 10:04:28;;;;;;;3.42;1.92;;;;;;;;;;10382616;22;20328;-87
2023/07/18 10:08:31;;;;;;;8.02;3.20;;;;;;;;;;10381718;22;20023;-88
2023/07/18 10:12:37;;;;;;;6.50;2.83;;;;;;;;;;10381906;22;20367;-88
2023/07/18 10:16:43;;;;;;;6.03;2.10;;;;;;;;;;10397014;22;20102;-89
2023/07/18 10:21:07;;;;;;;17.30;5.28;;;;;;;;;;10353693;22;20039;-89
2023/07/18 10:25:14;;;;;;;4.68;2.33;;;;;;;;;;10353162;22;20034;-91
2023/07/18 11:15:04;;;;;;;12.52;3.65;;;;;;;;;;10385229;22;20050;-90
2023/07/18 11:19:09;;;;;;;7.25;3.13;;;;;;;;;;10381546;22;20035;-86
2023/07/18 11:23:12;;;;;;;2.80;1.63;;;;;;;;;;10381547;22;20023;-87
2023/07/18 11:27:17;;;;;;;3.08;1.50;;;;;;;;;;10381119;22;20463;-86
2023/07/18 11:31:26;;;;;;;3.03;1.60;;;;;;;;;;10381198;22;20392;-85
2023/07/18 11:35:30;;;;;;;6.97;2.00;;;;;;;;;;10397986;22;20468;-85
2023/07/18 11:39:33;;;;;;;3.92;1.88;;;;;;;;;;10382315;22;20020;-85
2023/07/18 11:43:37;;;;;;;4.10;1.77;;;;;;;;;;10379806;22;20047;-89
2023/07/18 11:47:45;;;;;;;7.75;2.10;;;;;;;;;;10381687;22;20011;-85
2023/07/18 11:51:48;;;;;;;4.50;2.20;;;;;;;;;;10380432;22;20445;-88
2023/07/18 11:55:51;;;;;;;6.50;2.00;;;;;;;;;;10383095;22;20023;-90
2023/07/18 11:59:54;;;;;;;3.05;1.70;;;;;;;;;;10357954;22;20031;-88
2023/07/18 12:04:01;;;;;;;3.85;1.67;;;;;;;;;;10356540;22;20024;-86
2023/07/18 12:08:05;;;;;;;3.15;1.63;;;;;;;;;;10400100;22;20016;-88
2023/07/18 12:12:11;;;;;;;3.13;1.55;;;;;;;;;;10356221;22;20080;-85
2023/07/18 12:16:17;;;;;;;6.35;1.88;;;;;;;;;;10354364;22;20027;-87
2023/07/18 12:20:27;;;;;;;4.55;1.75;;;;;;;;;;10355483;22;20026;-85
2023/07/18 12:24:33;;;;;;;2.45;1.60;;;;;;;;;;10354972;22;20024;-88
2023/07/18 12:28:38;;;;;;;3.67;1.60;;;;;;;;;;10347853;22;20051;-86
2023/07/18 12:32:44;;;;;;;2.03;1.50;;;;;;;;;;10354573;22;20027;-89
2023/07/18 12:36:51;;;;;;;2.53;1.30;;;;;;;;;;10354959;22;20035;-86
2023/07/18 12:40:54;;;;;;;3.45;1.70;;;;;;;;;;10401211;22;20024;-87
2023/07/18 12:44:57;;;;;;;3.03;1.30;;;;;;;;;;10403047;22;20018;-86
2023/07/18 12:49:00;;;;;;;4.00;1.23;;;;;;;;;;10430560;22;20071;-87
2023/07/18 12:53:08;;;;;;;3.42;1.75;;;;;;;;;;10393181;22;20320;-85
2023/07/18 13:06:39;;;;;;;7.10;1.50;;;;;;;;;;10388143;22;20077;-86
2023/07/18 13:10:44;;;;;;;2.65;1.42;;;;;;;;;;10390095;22;20436;-90
2023/07/18 13:14:46;;;;;;;8.65;1.48;;;;;;;;;;10391258;22;20048;-87
2023/07/18 13:18:50;;;;;;;3.05;1.33;;;;;;;;;;10387892;22;20015;-89
2023/07/18 13:22:59;;;;;;;1.38;1.10;;;;;;;;;;10365854;22;20024;-85
2023/07/18 13:27:07;;;;;;;1.88;1.30;;;;;;;;;;10366490;22;20336;-86
2023/07/18 13:31:14;;;;;;;2.55;1.30;;;;;;;;;;10366716;22;20060;-91
2023/07/18 13:35:20;;;;;;;2.70;1.67;;;;;;;;;;10363928;22;20083;-86
2023/07/18 13:39:25;;;;;;;1.92;1.15;;;;;;;;;;10363924;22;20023;-88
2023/07/18 13:43:35;;;;;;;2.08;1.30;;;;;;;;;;10361109;22;20027;-93
2023/07/18 13:47:39;;;;;;;2.63;1.10;;;;;;;;;;10365623;22;20023;-91
2023/07/18 13:51:44;;;;;;;3.28;1.77;;;;;;;;;;10363203;22;20443;-92
2023/07/18 13:55:49;;;;;;;5.20;1.90;;;;;;;;;;10362573;22;20023;-92
2023/07/18 14:00:00;;;;;;;1.85;1.38;;;;;;;;;;10363338;22;20023;-92
2023/07/18 14:04:05;;;;;;;4.63;1.60;;;;;;;;;;10361611;22;20344;-94
2023/07/18 14:08:13;;;;;;;3.22;1.52;;;;;;;;;;10362408;22;20027;-91
2023/07/18 14:12:25;;;;;;;3.00;1.48;;;;;;;;;;10362378;22;20095;-95
2023/07/18 14:16:36;;;;;;;2.53;1.15;;;;;;;;;;10361511;22;20482;-86
2023/07/18 14:20:42;;;;;;;2.50;1.30;;;;;;;;;;10362532;22;20069;-92
2023/07/18 14:24:50;;;;;;;2.70;1.30;;;;;;;;;;10362492;22;20023;-91
2023/07/18 14:28:54;;;;;;;2.80;1.60;;;;;;;;;;10362251;22;20474;-89
2023/07/18 14:33:04;;;;;;;5.05;1.60;;;;;;;;;;10362359;22;20023;-89
2023/07/18 14:37:08;;;;;;;5.90;1.40;;;;;;;;;;10361408;22;20028;-91
2023/07/18 14:41:12;;;;;;;1.90;1.48;;;;;;;;;;10388806;22;20050;-92
2023/07/18 14:45:15;;;;;;;3.10;1.40;;;;;;;;;;10358852;22;20027;-89
2023/07/18 14:49:23;;;;;;;3.70;1.50;;;;;;;;;;10356871;22;20350;-90
2023/07/18 14:53:32;;;;;;;2.90;1.20;;;;;;;;;;10365580;22;20031;-88
2023/07/18 14:57:37;;;;;;;3.08;1.50;;;;;;;;;;10384893;22;20019;-91
2023/07/18 15:01:41;;;;;;;2.05;1.33;;;;;;;;;;10355509;22;20035;-92
2023/07/18 15:05:52;;;;;;;2.78;1.50;;;;;;;;;;10359413;22;20463;-90
2023/07/18 15:09:59;;;;;;;5.45;1.45;;;;;;;;;;10358689;22;20024;-90
2023/07/18 15:14:05;;;;;;;4.68;1.67;;;;;;;;;;10358510;22;20031;-91
2023/07/18 15:18:14;;;;;;;2.63;1.30;;;;;;;;;;10355841;22;20019;-88
2023/07/18 15:22:19;;;;;;;2.15;1.50;;;;;;;;;;10356506;22;20356;-90
2023/07/18 15:26:24;;;;;;;4.28;1.90;;;;;;;;;;10355664;22;20031;-89
2023/07/18 15:30:27;;;;;;;2.95;1.42;;;;;;;;;;10358819;22;20031;-91
2023/07/18 15:34:31;;;;;;;5.30;1.63;;;;;;;;;;10360165;22;20324;-90
2023/07/18 15:38:41;;;;;;;3.83;1.50;;;;;;;;;;10362602;22;20051;-90
2023/07/18 15:42:45;;;;;;;1.92;1.60;;;;;;;;;;10360008;22;20024;-91
2023/07/18 15:46:51;;;;;;;3.45;1.60;;;;;;;;;;10360010;22;20058;-88
2023/07/18 15:50:58;;;;;;;2.40;1.55;;;;;;;;;;10359497;22;20024;-88
2023/07/18 15:55:09;;;;;;;2.92;1.50;;;;;;;;;;10360640;22;20024;-92
2023/07/18 15:59:12;;;;;;;4.03;2.45;;;;;;;;;;10358915;22;20481;-91
2023/07/18 16:03:20;;;;;;;5.68;2.28;;;;;;;;;;10358219;22;20020;-87
2023/07/18 16:07:23;;;;;;;2.95;1.70;;;;;;;;;;10357702;22;20460;-91
2023/07/18 16:11:33;;;;;;;2.15;1.40;;;;;;;;;;10361090;22;20030;-88
2023/07/18 16:28:29;;;;;;;2.67;1.63;;;;;;;;;;10403639;22;20024;-92
2023/07/18 16:32:32;;;;;;;3.42;2.05;;;;;;;;;;10416199;22;20020;-90
2023/07/18 16:36:35;;;;;;;2.53;1.50;;;;;;;;;;10419786;22;20415;-90
2023/07/18 16:40:39;;;;;;;2.42;1.50;;;;;;;;;;10419499;22;20442;-89
2023/07/18 20:42:35;;;;;;;5.28;3.00;;;;;;;;;;10389338;22;20019;-85
2023/07/18 20:46:39;;;;;;;4.00;2.78;;;;;;;;;;10404609;22;20023;-86
2023/07/18 20:50:42;;;;;;;5.93;2.88;;;;;;;;;;10389900;22;20074;-89
2023/07/18 20:54:47;;;;;;;5.15;3.10;;;;;;;;;;10361966;22;20344;-89
2023/07/18 20:58:55;;;;;;;5.22;3.03;;;;;;;;;;10362883;22;20054;-90
